createdAt,value
2019-04-10T00:00:41.260Z,99788.34
2019-04-10T00:03:44.425Z,99798.73
2019-04-10T00:06:47.959Z,99794.78
2019-04-10T00:09:51.660Z,99791.98
2019-04-10T00:12:56.146Z,99795.95
2019-04-10T00:15:59.241Z,99793.76
2019-04-10T00:19:02.791Z,99798.43
2019-04-10T00:22:06.318Z,99789.59
2019-04-10T00:25:10.580Z,99793.67
2019-04-10T00:28:14.991Z,99793.49
2019-04-10T00:31:18.152Z,99803.00
2019-04-10T00:34:21.269Z,99797.19
2019-04-10T00:37:28.699Z,99802.94
2019-04-10T00:40:29.543Z,99804.56
2019-04-10T00:43:32.917Z,99811.16
2019-04-10T00:46:36.052Z,99803.73
2019-04-10T00:49:39.951Z,99806.91
2019-04-10T00:52:44.088Z,99814.02
2019-04-10T00:55:48.171Z,99815.31
2019-04-10T00:58:51.536Z,99810.91
2019-04-10T01:01:54.487Z,99813.70
2019-04-10T01:04:58.445Z,99813.80
2019-04-10T01:08:02.366Z,99803.84
2019-04-10T01:11:06.511Z,99812.42
2019-04-10T01:14:09.702Z,99809.77
2019-04-10T01:17:13.695Z,99803.59
2019-04-10T01:20:17.619Z,99807.28
2019-04-10T01:23:21.323Z,99809.04
2019-04-10T01:26:25.053Z,99808.07
2019-04-10T01:29:29.233Z,99806.34
2019-04-10T01:32:32.836Z,99805.86
2019-04-10T01:35:35.903Z,99809.01
2019-04-10T01:38:39.781Z,99806.42
2019-04-10T01:41:43.868Z,99805.28
2019-04-10T01:44:47.123Z,99809.08
2019-04-10T01:47:51.209Z,99808.89
2019-04-10T01:50:54.875Z,99806.20
2019-04-10T01:53:58.523Z,99805.72
2019-04-10T01:57:02.057Z,99805.47
2019-04-10T02:00:08.261Z,99810.69
2019-04-10T02:03:11.942Z,99805.00
2019-04-10T02:06:14.912Z,99811.23
2019-04-10T02:09:19.192Z,99811.09
2019-04-10T02:12:23.290Z,99803.99
2019-04-10T02:15:28.105Z,99811.13
2019-04-10T02:18:31.374Z,99807.00
2019-04-10T02:21:35.981Z,99809.86
2019-04-10T02:24:39.496Z,99810.45
2019-04-10T02:27:43.119Z,99810.45
2019-04-10T02:30:46.228Z,99813.38
2019-04-10T02:33:49.704Z,99812.66
2019-04-10T02:36:53.115Z,99809.59
2019-04-10T02:40:02.193Z,99806.87
2019-04-10T02:43:03.252Z,99803.96
2019-04-10T02:46:06.908Z,99809.73
2019-04-10T02:49:14.423Z,99811.66
2019-04-10T02:52:18.322Z,99814.57
2019-04-10T02:55:23.205Z,99815.71
2019-04-10T02:58:26.905Z,99818.83
2019-04-10T03:01:31.189Z,99811.30
2019-04-10T03:04:35.175Z,99819.84
2019-04-10T03:07:42.283Z,99825.53
2019-04-10T03:10:50.584Z,99820.38
2019-04-10T03:13:51.426Z,99820.77
2019-04-10T03:16:55.500Z,99822.77
2019-04-10T03:19:58.899Z,99833.02
2019-04-10T03:23:02.048Z,99829.11
2019-04-10T03:26:05.608Z,99828.11
2019-04-10T03:29:08.782Z,99832.09
2019-04-10T03:32:50.261Z,99825.20
2019-04-10T03:35:51.435Z,99828.41
2019-04-10T03:39:00.071Z,99827.22
2019-04-10T03:41:59.688Z,99829.89
2019-04-10T03:45:03.402Z,99833.60
2019-04-10T03:48:06.734Z,99830.52
2019-04-10T03:51:10.305Z,99831.95
2019-04-10T03:54:13.634Z,99836.32
2019-04-10T03:57:16.688Z,99834.51
2019-04-10T04:00:20.981Z,99831.97
2019-04-10T04:03:24.654Z,99836.57
2019-04-10T04:06:28.076Z,99839.69
2019-04-10T04:09:31.676Z,99838.73
2019-04-10T04:12:35.215Z,99838.36
2019-04-10T04:15:38.603Z,99847.09
2019-04-10T04:18:41.952Z,99840.53
2019-04-10T04:21:44.918Z,99839.27
2019-04-10T04:24:48.643Z,99842.01
2019-04-10T04:27:51.877Z,99847.86
2019-04-10T04:30:54.823Z,99845.56
2019-04-10T04:33:57.775Z,99841.28
2019-04-10T04:37:00.692Z,99852.14
2019-04-10T04:40:05.469Z,99853.23
2019-04-10T04:43:08.562Z,99851.89
2019-04-10T04:46:12.471Z,99866.86
2019-04-10T04:49:15.779Z,99869.08
2019-04-10T04:52:20.327Z,99867.09
2019-04-10T04:55:23.448Z,99875.70
2019-04-10T04:58:26.690Z,99875.91
2019-04-10T05:01:29.720Z,99877.85
2019-04-10T05:04:33.756Z,99881.09
2019-04-10T05:07:37.620Z,99886.05
2019-04-10T05:10:41.882Z,99887.15
2019-04-10T05:13:45.585Z,99891.61
2019-04-10T05:16:49.988Z,99903.50
2019-04-10T05:19:54.494Z,99905.28
2019-04-10T05:22:58.550Z,99908.48
2019-04-10T05:26:03.809Z,99909.53
2019-04-10T05:29:07.181Z,99914.70
2019-04-10T05:32:11.410Z,99922.11
2019-04-10T05:35:15.251Z,99927.22
2019-04-10T05:38:18.762Z,99929.23
2019-04-10T05:41:23.256Z,99932.23
2019-04-10T05:44:27.768Z,99935.62
2019-04-10T05:47:30.732Z,99937.92
2019-04-10T05:50:33.669Z,99943.09
2019-04-10T05:53:36.856Z,99948.23
2019-04-10T05:56:40.596Z,99948.61
2019-04-10T05:59:43.958Z,99957.80
2019-04-10T06:02:48.070Z,99955.98
2019-04-10T06:05:51.542Z,99958.70
2019-04-10T06:08:54.473Z,99954.64
2019-04-10T06:12:00.083Z,99964.13
2019-04-10T06:15:04.430Z,99963.42
2019-04-10T06:18:09.189Z,99970.55
2019-04-10T06:21:12.557Z,99970.11
2019-04-10T06:24:16.304Z,99966.96
2019-04-10T06:27:20.468Z,99964.50
2019-04-10T06:30:24.249Z,99973.16
2019-04-10T06:33:28.440Z,99963.34
2019-04-10T06:36:31.499Z,99968.86
2019-04-10T06:39:35.233Z,99975.40
2019-04-10T06:42:46.159Z,99971.12
2019-04-10T06:45:44.021Z,99975.55
2019-04-10T06:48:48.114Z,99970.55
2019-04-10T06:51:52.284Z,99971.70
2019-04-10T06:54:55.430Z,99968.36
2019-04-10T06:57:59.344Z,99973.11
2019-04-10T07:01:04.160Z,99979.66
2019-04-10T07:04:08.140Z,99976.50
2019-04-10T07:07:15.170Z,99985.42
2019-04-10T07:10:26.102Z,99976.87
2019-04-10T07:13:21.986Z,99979.09
2019-04-10T07:16:28.907Z,99978.73
2019-04-10T07:19:30.658Z,99983.28
2019-04-10T07:22:34.030Z,99982.46
2019-04-10T07:25:37.652Z,99982.16
2019-04-10T07:28:45.652Z,99989.78
2019-04-10T07:31:48.766Z,99988.30
2019-04-10T07:34:57.426Z,99989.89
2019-04-10T07:37:58.069Z,99989.89
2019-04-10T07:41:01.529Z,99994.52
2019-04-10T07:44:05.892Z,99992.29
2019-04-10T07:47:11.107Z,99987.17
2019-04-10T07:50:14.701Z,99993.41
2019-04-10T07:53:17.648Z,99996.05
2019-04-10T07:56:20.980Z,99999.50
2019-04-10T07:59:25.568Z,100000.54
2019-04-10T08:03:14.640Z,100003.55
2019-04-10T08:06:17.953Z,100005.12
2019-04-10T08:09:21.238Z,100007.34
2019-04-10T08:12:37.620Z,100006.61
2019-04-10T08:15:33.564Z,100014.34
2019-04-10T08:18:37.240Z,100012.23
2019-04-10T08:21:40.396Z,100002.14
2019-04-10T08:24:49.106Z,100005.11
2019-04-10T08:27:52.305Z,100014.68
2019-04-10T08:30:57.445Z,100011.77
2019-04-10T08:34:01.089Z,100016.42
2019-04-10T08:37:04.613Z,100006.19
2019-04-10T08:40:09.626Z,100018.90
2019-04-10T08:43:13.778Z,100010.41
2019-04-10T08:46:17.698Z,100015.48
2019-04-10T08:49:21.424Z,100018.43
2019-04-10T08:52:24.757Z,100018.45
2019-04-10T08:55:28.280Z,100015.59
2019-04-10T08:58:32.755Z,100019.47
2019-04-10T09:01:36.316Z,100021.38
2019-04-10T09:04:39.295Z,100018.36
2019-04-10T09:07:42.291Z,100019.31
2019-04-10T09:10:47.408Z,100021.03
2019-04-10T09:13:50.763Z,100023.80
2019-04-10T09:16:55.258Z,100022.56
2019-04-10T09:19:58.400Z,100021.88
2019-04-10T09:23:33.031Z,100014.40
2019-04-10T09:26:06.576Z,100016.59
2019-04-10T09:29:09.802Z,100022.24
2019-04-10T09:32:12.799Z,100017.22
2019-04-10T09:35:16.368Z,100013.02
2019-04-10T09:38:20.972Z,100010.51
2019-04-10T09:41:23.988Z,100010.81
2019-04-10T09:44:27.831Z,100002.05
2019-04-10T09:47:31.011Z,100011.89
2019-04-10T09:50:33.947Z,100009.38
2019-04-10T09:53:38.987Z,100008.45
2019-04-10T09:56:42.405Z,100006.09
2019-04-10T09:59:46.987Z,100008.00
2019-04-10T10:02:50.738Z,100007.45
2019-04-10T10:05:55.023Z,100005.33
2019-04-10T10:08:58.468Z,100011.03
2019-04-10T10:12:01.511Z,100010.06
2019-04-10T10:15:07.235Z,100004.10
2019-04-10T10:18:10.937Z,100010.70
2019-04-10T10:21:14.615Z,100009.03
2019-04-10T10:24:18.320Z,100005.61
2019-04-10T10:27:22.152Z,100009.31
2019-04-10T10:30:27.273Z,100009.52
2019-04-10T10:33:31.989Z,100016.58
2019-04-10T10:36:41.133Z,100011.92
2019-04-10T10:39:41.145Z,100017.28
2019-04-10T10:42:45.552Z,100022.13
2019-04-10T10:45:49.207Z,100009.64
2019-04-10T10:48:52.232Z,100009.28
2019-04-10T10:51:57.210Z,100017.19
2019-04-10T10:55:01.058Z,100016.75
2019-04-10T10:58:05.798Z,100018.66
2019-04-10T11:01:08.968Z,100022.78
2019-04-10T11:04:12.953Z,100021.41
2019-04-10T11:07:16.217Z,100019.84
2019-04-10T11:10:22.709Z,100008.17
2019-04-10T11:13:24.293Z,100009.22
2019-04-10T11:16:27.673Z,100025.00
2019-04-10T11:19:31.232Z,100015.55
2019-04-10T11:22:35.521Z,100022.44
2019-04-10T11:25:40.394Z,100008.59
2019-04-10T11:28:45.618Z,100022.54
2019-04-10T11:31:49.227Z,100022.78
2019-04-10T11:34:52.971Z,100017.28
2019-04-10T11:37:59.247Z,100011.57
2019-04-10T11:41:03.016Z,100018.70
2019-04-10T11:44:08.147Z,100022.03
2019-04-10T11:47:12.762Z,100024.84
2019-04-10T11:50:18.377Z,100022.95
2019-04-10T11:53:24.013Z,100022.15
2019-04-10T11:56:30.063Z,100034.52
2019-04-10T11:59:34.583Z,100033.08
2019-04-10T12:02:39.425Z,100029.02
2019-04-10T12:05:42.659Z,100044.04
2019-04-10T12:09:08.310Z,100028.89
2019-04-10T12:11:51.489Z,100031.65
2019-04-10T12:14:54.454Z,100047.77
2019-04-10T12:17:58.237Z,100046.34
2019-04-10T12:21:01.924Z,100040.92
2019-04-10T12:24:05.420Z,100040.70
2019-04-10T12:27:09.161Z,100042.49
2019-04-10T12:30:13.325Z,100034.22
2019-04-10T12:33:17.173Z,100033.45
2019-04-10T12:36:20.536Z,100040.59
2019-04-10T12:39:24.538Z,100041.83
2019-04-10T12:42:28.146Z,100033.03
2019-04-10T12:45:32.635Z,100039.19
2019-04-10T12:48:36.901Z,100040.58
2019-04-10T12:51:40.271Z,100041.09
2019-04-10T12:54:44.973Z,100042.56
2019-04-10T12:57:48.664Z,100041.66
2019-04-10T13:00:52.207Z,100035.91
2019-04-10T13:03:55.774Z,100038.52
2019-04-10T13:06:59.069Z,100031.90
2019-04-10T13:10:02.544Z,100032.41
2019-04-10T13:13:06.148Z,100032.72
2019-04-10T13:16:09.918Z,100030.61
2019-04-10T13:19:13.190Z,100021.00
2019-04-10T13:22:16.645Z,100024.59
2019-04-10T13:25:19.613Z,100037.76
2019-04-10T13:28:23.743Z,100029.98
2019-04-10T13:31:27.652Z,100032.89
2019-04-10T13:34:31.269Z,100035.64
2019-04-10T13:37:35.610Z,100028.31
2019-04-10T13:40:39.578Z,100029.44
2019-04-10T13:43:42.600Z,100035.01
2019-04-10T13:46:46.424Z,100039.03
2019-04-10T13:49:51.115Z,100027.95
2019-04-10T13:52:54.891Z,100036.77
2019-04-10T13:55:58.999Z,100041.13
2019-04-10T13:59:02.141Z,100034.54
2019-04-10T14:02:06.964Z,100043.43
2019-04-10T14:05:13.690Z,100034.00
2019-04-10T14:08:17.264Z,100027.45
2019-04-10T14:11:21.470Z,100033.87
2019-04-10T14:14:24.595Z,100039.94
2019-04-10T14:17:28.407Z,100047.39
2019-04-10T14:20:31.685Z,100039.87
2019-04-10T14:23:35.331Z,100037.02
2019-04-10T14:26:55.651Z,100047.01
2019-04-10T14:29:59.695Z,100044.95
2019-04-10T14:33:05.066Z,100048.95
2019-04-10T14:36:08.250Z,100055.59
2019-04-10T14:39:18.406Z,100062.36
2019-04-10T14:42:20.327Z,100062.75
2019-04-10T14:45:23.619Z,100058.98
2019-04-10T14:48:27.884Z,100061.80
2019-04-10T14:51:32.481Z,100059.69
2019-04-10T14:54:35.823Z,100068.23
2019-04-10T14:57:39.174Z,100063.44
2019-04-10T15:00:49.520Z,100064.63
2019-04-10T15:03:53.001Z,100067.52
2019-04-10T15:06:56.302Z,100073.20
2019-04-10T15:10:00.909Z,100068.88
2019-04-10T15:13:10.255Z,100074.95
2019-04-10T15:16:09.496Z,100077.13
2019-04-10T15:19:12.900Z,100078.58
2019-04-10T15:22:15.968Z,100076.91
2019-04-10T15:25:19.489Z,100080.45
2019-04-10T15:28:23.236Z,100074.63
2019-04-10T15:31:27.560Z,100080.77
2019-04-10T15:34:31.389Z,100078.99
2019-04-10T15:37:35.192Z,100088.83
2019-04-10T15:40:38.614Z,100086.09
2019-04-10T15:43:42.016Z,100098.00
2019-04-10T15:46:45.647Z,100097.02
2019-04-10T15:49:49.392Z,100088.19
2019-04-10T15:52:53.593Z,100107.16
2019-04-10T15:55:57.783Z,100102.28
2019-04-10T15:59:01.192Z,100109.71
2019-04-10T16:02:05.721Z,100111.51
2019-04-10T16:05:10.081Z,100104.73
2019-04-10T16:08:14.258Z,100103.27
2019-04-10T16:11:29.942Z,100109.45
2019-04-10T16:14:33.407Z,100105.92
2019-04-10T16:17:52.587Z,100117.98
2019-04-10T16:20:56.182Z,100113.89
2019-04-10T16:24:04.605Z,100118.25
2019-04-10T16:27:07.669Z,100121.11
2019-04-10T16:30:15.494Z,100121.84
2019-04-10T16:33:18.874Z,100117.16
2019-04-10T16:36:23.404Z,100126.23
2019-04-10T16:39:27.834Z,100128.37
2019-04-10T16:42:31.042Z,100133.38
2019-04-10T16:45:34.892Z,100131.20
2019-04-10T16:48:38.035Z,100132.55
2019-04-10T16:51:41.009Z,100136.52
2019-04-10T16:54:45.158Z,100138.17
2019-04-10T16:57:49.151Z,100144.02
2019-04-10T17:00:53.780Z,100151.07
2019-04-10T17:03:57.256Z,100150.89
2019-04-10T17:07:00.848Z,100146.44
2019-04-10T17:10:14.065Z,100143.81
2019-04-10T17:13:12.109Z,100151.67
2019-04-10T17:16:15.641Z,100150.19
2019-04-10T17:19:19.431Z,100154.80
2019-04-10T17:22:30.881Z,100155.64
2019-04-10T17:25:28.488Z,100159.21
2019-04-10T17:28:32.311Z,100160.70
2019-04-10T17:31:35.477Z,100161.02
2019-04-10T17:34:38.944Z,100167.61
2019-04-10T17:37:42.275Z,100168.06
2019-04-10T17:40:50.929Z,100172.51
2019-04-10T17:43:51.554Z,100170.27
2019-04-10T17:46:55.761Z,100174.92
2019-04-10T17:50:00.168Z,100177.48
2019-04-10T17:53:05.101Z,100184.78
2019-04-10T17:56:08.665Z,100183.67
2019-04-10T17:59:11.605Z,100181.82
2019-04-10T18:02:15.719Z,100194.97
2019-04-10T18:05:20.116Z,100197.82
2019-04-10T18:08:26.424Z,100212.01
2019-04-10T18:11:29.798Z,100209.70
2019-04-10T18:14:36.148Z,100217.86
2019-04-10T18:17:38.735Z,100218.62
2019-04-10T18:20:42.239Z,100222.48
2019-04-10T18:23:45.445Z,100224.41
2019-04-10T18:26:51.917Z,100233.17
2019-04-10T18:29:53.584Z,100240.92
2019-04-10T18:32:58.084Z,100249.52
2019-04-10T18:36:01.528Z,100245.67
2019-04-10T18:39:11.374Z,100252.39
2019-04-10T18:42:13.890Z,100253.41
2019-04-10T18:45:17.585Z,100260.15
2019-04-10T18:48:21.383Z,100265.67
2019-04-10T18:51:25.690Z,100269.92
2019-04-10T18:54:29.790Z,100268.88
2019-04-10T18:57:35.009Z,100274.50
2019-04-10T19:00:56.850Z,100270.95
2019-04-10T19:04:18.279Z,100275.88
2019-04-10T19:07:22.894Z,100277.95
2019-04-10T19:10:26.435Z,100281.16
2019-04-10T19:13:29.408Z,100281.47
2019-04-10T19:16:33.831Z,100284.22
2019-04-10T19:19:40.095Z,100289.39
2019-04-10T19:22:42.451Z,100293.06
2019-04-10T19:25:47.079Z,100299.17
2019-04-10T19:28:50.722Z,100298.20
2019-04-10T19:31:56.447Z,100301.16
2019-04-10T19:34:59.385Z,100307.92
2019-04-10T19:38:03.164Z,100304.11
2019-04-10T19:41:06.283Z,100308.31
2019-04-10T19:44:10.737Z,100310.02
2019-04-10T19:47:14.580Z,100316.81
2019-04-10T19:50:19.402Z,100320.90
2019-04-10T19:53:22.516Z,100316.58
2019-04-10T19:56:26.653Z,100322.55
2019-04-10T19:59:31.623Z,100330.28
2019-04-10T20:02:35.166Z,100325.90
2019-04-10T20:05:39.337Z,100333.97
2019-04-10T20:08:42.587Z,100332.89
2019-04-10T20:11:52.261Z,100338.09
2019-04-10T20:14:50.725Z,100342.48
2019-04-10T20:17:54.636Z,100345.23
2019-04-10T20:20:58.086Z,100343.20
2019-04-10T20:24:01.133Z,100350.47
2019-04-10T20:27:04.495Z,100352.59
2019-04-10T20:30:09.942Z,100349.54
2019-04-10T20:33:14.488Z,100355.97
2019-04-10T20:36:17.514Z,100362.80
2019-04-10T20:39:21.101Z,100366.82
2019-04-10T20:42:25.292Z,100359.39
2019-04-10T20:45:29.489Z,100371.20
2019-04-10T20:48:32.822Z,100370.27
2019-04-10T20:51:35.969Z,100376.30
2019-04-10T20:54:39.527Z,100375.67
2019-04-10T20:57:46.413Z,100374.19
2019-04-10T21:00:51.435Z,100382.88
2019-04-10T21:03:57.105Z,100378.85
2019-04-10T21:07:00.729Z,100380.42
2019-04-10T21:10:04.290Z,100388.42
2019-04-10T21:13:21.936Z,100390.95
2019-04-10T21:16:27.349Z,100391.09
2019-04-10T21:19:31.279Z,100400.39
2019-04-10T21:22:34.331Z,100397.97
2019-04-10T21:25:37.964Z,100401.70
2019-04-10T21:28:41.580Z,100399.17
2019-04-10T21:31:54.935Z,100398.74
2019-04-10T21:34:59.689Z,100397.44
2019-04-10T21:38:02.778Z,100399.11
2019-04-10T21:41:08.093Z,100396.87
2019-04-10T21:44:12.954Z,100406.40
2019-04-10T21:47:16.037Z,100396.87
2019-04-10T21:50:20.024Z,100416.16
2019-04-10T21:53:24.086Z,100413.27
2019-04-10T21:56:28.763Z,100410.14
2019-04-10T21:59:32.149Z,100415.92
2019-04-10T22:02:35.904Z,100420.45
2019-04-10T22:05:41.012Z,100411.84
2019-04-10T22:08:50.373Z,100412.16
2019-04-10T22:11:55.314Z,100415.86
2019-04-10T22:14:58.385Z,100417.05
2019-04-10T22:18:02.982Z,100414.53
2019-04-10T22:21:08.226Z,100418.39
2019-04-10T22:24:11.609Z,100418.22
2019-04-10T22:27:14.842Z,100419.53
2019-04-10T22:30:18.969Z,100418.86
2019-04-10T22:33:22.295Z,100419.75
2019-04-10T22:36:26.013Z,100426.52
2019-04-10T22:39:29.974Z,100427.03
2019-04-10T22:42:40.115Z,100426.09
2019-04-10T22:45:40.162Z,100429.31
2019-04-10T22:48:43.669Z,100433.42
2019-04-10T22:51:46.666Z,100432.59
2019-04-10T22:54:50.898Z,100437.56
2019-04-10T22:57:54.763Z,100440.86
2019-04-10T23:00:58.031Z,100439.31
2019-04-10T23:04:01.779Z,100437.64
2019-04-10T23:07:06.027Z,100440.23
2019-04-10T23:10:13.219Z,100439.17
2019-04-10T23:13:18.635Z,100438.70
2019-04-10T23:16:22.266Z,100445.38
2019-04-10T23:19:25.834Z,100439.23
2019-04-10T23:22:29.389Z,100442.41
2019-04-10T23:25:32.864Z,100444.21
2019-04-10T23:28:36.386Z,100442.48
2019-04-10T23:31:41.618Z,100441.91
2019-04-10T23:34:45.339Z,100444.55
2019-04-10T23:37:48.615Z,100450.36
2019-04-10T23:40:51.627Z,100443.71
2019-04-10T23:43:55.705Z,100448.96
2019-04-10T23:46:59.937Z,100453.38
2019-04-10T23:50:06.263Z,100454.16
2019-04-10T23:53:09.994Z,100450.32
2019-04-10T23:56:13.624Z,100457.37
2019-04-10T23:59:19.086Z,100455.64
